Time;durP1;ratioP1;P1;durP2;ratioP2;P2;SDS_P1;SDS_P2;PMS_P1;PMS_P2;Temp;Humidity;BMP_temperature;BMP_pressure;BME280_temperature;BME280_humidity;BME280_pressure;Samples;Min_cycle;Max_cycle;Signal;HPM_P1;HPM_P2
2022/10/19 00:00:18;;;;;;;17.47;12.27;;;16.70;53.30;;;;;;5093313;28;20218;-42
2022/10/19 00:02:43;;;;;;;20.83;14.47;;;16.70;53.10;;;;;;5093239;28;20168;-42
2022/10/19 00:05:09;;;;;;;24.43;14.33;;;16.70;53.00;;;;;;5093125;28;20426;-42
2022/10/19 00:07:35;;;;;;;16.17;12.90;;;16.60;52.80;;;;;;5092657;28;20172;-41
2022/10/19 00:10:01;;;;;;;26.20;14.87;;;16.60;52.60;;;;;;5093055;28;20574;-41
2022/10/19 00:12:26;;;;;;;18.90;12.57;;;16.60;52.60;;;;;;5093147;28;20172;-42
2022/10/19 00:14:52;;;;;;;22.40;15.43;;;16.50;52.70;;;;;;5092808;28;20478;-41
2022/10/19 00:17:18;;;;;;;21.53;14.17;;;16.50;52.70;;;;;;5092335;28;20172;-42
2022/10/19 00:19:43;;;;;;;21.73;15.20;;;16.50;52.70;;;;;;5092984;28;20168;-41
2022/10/19 00:22:09;;;;;;;20.87;13.67;;;16.50;52.60;;;;;;5093171;28;20176;-42
2022/10/19 00:24:35;;;;;;;23.07;15.87;;;16.40;52.60;;;;;;5092595;28;20199;-41
2022/10/19 00:27:01;;;;;;;20.53;13.90;;;16.40;52.80;;;;;;5092109;28;20675;-42
2022/10/19 00:29:26;;;;;;;19.33;13.47;;;16.30;52.80;;;;;;5091483;28;20620;-42
2022/10/19 00:31:52;;;;;;;20.70;14.17;;;16.30;52.60;;;;;;5092633;28;20182;-42
2022/10/19 00:34:18;;;;;;;17.93;13.43;;;16.20;52.50;;;;;;5092617;28;20203;-42
2022/10/19 00:36:44;;;;;;;17.10;12.90;;;16.20;52.60;;;;;;5092238;28;20281;-42
2022/10/19 00:39:13;;;;;;;19.70;14.80;;;16.20;52.60;;;;;;5092540;28;21013;-42
2022/10/19 00:41:40;;;;;;;21.45;15.27;;;16.20;52.60;;;;;;5092514;28;20182;-42
2022/10/19 00:44:10;;;;;;;21.88;13.65;;;16.10;52.80;;;;;;5092675;28;20172;-42
2022/10/19 00:46:38;;;;;;;20.05;13.55;;;16.10;52.70;;;;;;5091534;28;20846;-42
2022/10/19 00:49:11;;;;;;;16.25;12.25;;;16.10;52.80;;;;;;5092352;28;20209;-41
2022/10/19 00:51:42;;;;;;;20.75;13.40;;;16.10;52.80;;;;;;5092461;28;20210;-42
2022/10/19 00:54:08;;;;;;;22.60;15.75;;;16.10;52.70;;;;;;5092270;28;20203;-42
2022/10/19 00:56:37;;;;;;;19.83;13.10;;;16.00;52.80;;;;;;5091982;28;20192;-42
2022/10/19 00:59:04;;;;;;;19.63;14.43;;;16.00;52.70;;;;;;5092455;28;20183;-42
2022/10/19 01:01:31;;;;;;;17.25;12.15;;;16.00;52.60;;;;;;5092554;28;20172;-42
2022/10/19 01:03:58;;;;;;;18.15;11.57;;;16.00;52.60;;;;;;5092262;28;20202;-41
2022/10/19 01:06:25;;;;;;;18.05;12.18;;;16.00;52.50;;;;;;5091580;28;20184;-42
2022/10/19 01:08:50;;;;;;;16.55;10.80;;;15.90;52.60;;;;;;5092113;28;20610;-42
2022/10/19 01:11:37;;;;;;;19.33;12.60;;;15.90;52.50;;;;;;5090881;28;20176;-42
2022/10/19 01:14:06;;;;;;;18.42;11.50;;;15.90;52.50;;;;;;5092331;28;20199;-41
2022/10/19 01:17:02;;;;;;;19.70;11.52;;;15.90;52.50;;;;;;5092901;28;20634;-41
2022/10/19 01:20:04;;;;;;;16.38;11.25;;;15.90;52.30;;;;;;5093610;28;20164;-41
2022/10/19 01:23:17;;;;;;;21.05;11.77;;;15.80;52.10;;;;;;5093383;28;20266;-42
2022/10/19 01:26:09;;;;;;;17.60;13.38;;;15.80;52.10;;;;;;5091914;28;20195;-42
2022/10/19 01:28:53;;;;;;;15.48;9.82;;;15.70;52.10;;;;;;5092444;28;20195;-42
2022/10/19 01:31:41;;;;;;;14.35;11.10;;;15.60;52.00;;;;;;5092309;28;20168;-42
2022/10/19 01:34:30;;;;;;;17.92;10.77;;;15.60;52.00;;;;;;5091990;28;20184;-42
2022/10/19 01:37:11;;;;;;;16.77;11.80;;;15.50;51.90;;;;;;5093290;28;20190;-41
2022/10/19 01:39:59;;;;;;;18.98;12.57;;;15.50;52.00;;;;;;5096102;28;20627;-42
2022/10/19 01:42:41;;;;;;;13.25;10.32;;;15.40;51.80;;;;;;5096286;28;20175;-42
2022/10/19 01:45:20;;;;;;;16.13;9.43;;;15.40;51.80;;;;;;5095919;28;20245;-42
2022/10/19 01:48:01;;;;;;;14.90;10.68;;;15.40;51.70;;;;;;5095443;28;20665;-41
2022/10/19 01:50:33;;;;;;;15.23;9.90;;;15.30;51.70;;;;;;5095901;28;20713;-41
2022/10/19 01:52:59;;;;;;;18.63;11.52;;;15.30;51.70;;;;;;5095749;28;20167;-42
2022/10/19 01:55:26;;;;;;;21.48;11.55;;;15.30;51.80;;;;;;5095655;28;20195;-42
2022/10/19 01:58:04;;;;;;;13.50;10.52;;;15.30;51.90;;;;;;5095200;28;20628;-42
2022/10/19 02:00:31;;;;;;;15.10;9.73;;;15.30;52.50;;;;;;5095693;28;20176;-42
2022/10/19 02:02:59;;;;;;;17.85;11.65;;;15.30;51.90;;;;;;5095481;28;20184;-42
2022/10/19 02:05:31;;;;;;;15.60;9.85;;;15.30;52.00;;;;;;5095441;28;20219;-41
2022/10/19 02:08:12;;;;;;;17.27;11.15;;;15.40;52.10;;;;;;5095312;28;20275;-41
2022/10/19 02:10:40;;;;;;;13.10;10.38;;;15.30;52.90;;;;;;5095515;28;20191;-42
2022/10/19 02:13:08;;;;;;;16.48;10.40;;;15.30;52.20;;;;;;5095309;28;20190;-42
2022/10/19 02:15:38;;;;;;;16.48;9.63;;;15.30;52.10;;;;;;5094488;28;20216;-41
2022/10/19 02:18:06;;;;;;;16.27;10.95;;;15.30;52.10;;;;;;5095478;28;20176;-42
2022/10/19 02:20:34;;;;;;;12.18;9.00;;;15.30;52.00;;;;;;5095551;28;20183;-42
2022/10/19 02:23:01;;;;;;;12.93;8.85;;;15.30;51.80;;;;;;5095252;28;20191;-42
2022/10/19 02:25:27;;;;;;;12.88;9.18;;;15.30;51.60;;;;;;5095000;28;20716;-42
2022/10/19 02:27:53;;;;;;;12.10;9.00;;;15.20;51.40;;;;;;5094496;28;20179;-41
2022/10/19 02:30:21;;;;;;;13.67;9.60;;;15.20;51.30;;;;;;5095182;28;20666;-41
2022/10/19 02:32:47;;;;;;;13.00;9.30;;;15.20;51.30;;;;;;5095016;28;20180;-42
2022/10/19 02:35:14;;;;;;;11.53;8.43;;;15.10;51.30;;;;;;5094764;28;20211;-42
2022/10/19 02:37:40;;;;;;;12.07;8.75;;;15.10;51.40;;;;;;5094459;28;20471;-42
2022/10/19 02:40:07;;;;;;;15.20;8.88;;;15.00;51.40;;;;;;5094969;28;20164;-42
2022/10/19 02:42:53;;;;;;;14.43;9.60;;;15.00;51.60;;;;;;5094857;28;20193;-42
2022/10/19 02:45:27;;;;;;;11.85;9.00;;;15.00;51.60;;;;;;5094601;28;20204;-42
2022/10/19 02:48:07;;;;;;;15.07;9.60;;;15.00;51.70;;;;;;5094111;28;20689;-42
2022/10/19 02:50:33;;;;;;;15.00;7.30;;;15.00;51.80;;;;;;5094932;28;20164;-43
2022/10/19 02:52:59;;;;;;;15.13;10.10;;;15.00;51.80;;;;;;5094591;28;20186;-41
2022/10/19 02:55:25;;;;;;;15.38;9.65;;;15.10;52.00;;;;;;5094655;28;20208;-42
2022/10/19 02:57:51;;;;;;;12.48;8.70;;;15.10;52.00;;;;;;5094134;28;20198;-42
2022/10/19 03:00:17;;;;;;;13.03;9.20;;;15.10;51.90;;;;;;5094498;28;20652;-42
2022/10/19 03:02:43;;;;;;;12.87;7.63;;;15.10;51.90;;;;;;5094541;28;20168;-41
2022/10/19 03:05:09;;;;;;;15.93;9.90;;;15.10;51.90;;;;;;5094352;28;20456;-41
2022/10/19 03:07:35;;;;;;;15.63;10.17;;;15.10;52.00;;;;;;5093799;28;20196;-41
2022/10/19 03:10:01;;;;;;;12.52;9.40;;;15.10;52.00;;;;;;5094323;28;20200;-42
2022/10/19 03:12:27;;;;;;;13.20;8.70;;;15.20;52.00;;;;;;5094262;28;20191;-42
2022/10/19 03:14:52;;;;;;;16.00;8.82;;;15.20;52.10;;;;;;5094353;28;20194;-42
2022/10/19 03:17:18;;;;;;;12.37;9.03;;;15.20;52.10;;;;;;5093697;28;20267;-42
2022/10/19 03:19:44;;;;;;;16.50;10.20;;;15.20;52.10;;;;;;5094417;28;20251;-41
2022/10/19 03:22:11;;;;;;;17.33;8.90;;;15.20;52.10;;;;;;5094005;28;20402;-42
2022/10/19 03:24:37;;;;;;;11.15;8.75;;;15.20;52.20;;;;;;5094033;28;20628;-42
2022/10/19 03:27:02;;;;;;;13.50;8.23;;;15.30;52.20;;;;;;5093217;28;20203;-42
2022/10/19 03:29:28;;;;;;;12.53;8.93;;;15.20;52.10;;;;;;5093922;28;20172;-41
2022/10/19 03:31:54;;;;;;;15.47;7.80;;;15.20;52.00;;;;;;5093989;28;20172;-41
2022/10/19 03:34:20;;;;;;;11.50;8.73;;;15.20;52.00;;;;;;5093702;28;20200;-42
2022/10/19 03:36:46;;;;;;;14.43;8.20;;;15.20;51.90;;;;;;5093141;28;20432;-42
2022/10/19 03:39:14;;;;;;;10.07;9.03;;;15.20;51.90;;;;;;5093577;28;20429;-42
2022/10/19 03:41:40;;;;;;;11.93;9.00;;;15.20;51.90;;;;;;5093637;28;20412;-41
2022/10/19 03:44:07;;;;;;;11.35;8.73;;;15.20;51.90;;;;;;5093639;28;20180;-42
2022/10/19 03:46:34;;;;;;;18.77;10.63;;;15.20;51.80;;;;;;5093017;28;20282;-41
2022/10/19 03:49:00;;;;;;;14.88;9.15;;;15.20;51.90;;;;;;5093736;28;20203;-42
2022/10/19 03:51:27;;;;;;;14.77;11.65;;;15.30;52.10;;;;;;5093563;28;20167;-42
2022/10/19 03:54:07;;;;;;;14.27;9.23;;;15.20;52.10;;;;;;5093546;28;20245;-41
2022/10/19 03:56:34;;;;;;;17.42;8.90;;;15.30;52.20;;;;;;5093093;28;20189;-42
2022/10/19 03:59:02;;;;;;;13.10;8.65;;;15.30;52.30;;;;;;5093037;28;20686;-41
2022/10/19 04:01:31;;;;;;;14.15;10.25;;;15.30;52.40;;;;;;5093254;28;20172;-42
2022/10/19 04:04:00;;;;;;;16.70;10.45;;;15.30;52.40;;;;;;5093349;28;20719;-42
2022/10/19 04:06:32;;;;;;;14.32;9.75;;;15.30;52.30;;;;;;5092624;28;20200;-41
2022/10/19 04:08:58;;;;;;;14.27;9.68;;;15.40;52.30;;;;;;5093359;28;20186;-42
2022/10/19 04:11:27;;;;;;;13.25;9.73;;;15.40;52.30;;;;;;5093841;28;20176;-42
2022/10/19 04:13:54;;;;;;;15.20;9.32;;;15.40;52.20;;;;;;5093194;28;20551;-42
2022/10/19 04:16:21;;;;;;;12.32;7.70;;;15.40;52.30;;;;;;5092426;28;20204;-41
2022/10/19 04:18:47;;;;;;;14.48;9.70;;;15.40;52.20;;;;;;5093120;28;20164;-42
2022/10/19 04:21:26;;;;;;;13.77;9.10;;;15.40;52.20;;;;;;5093076;28;20156;-42
2022/10/19 04:23:56;;;;;;;10.60;9.50;;;15.40;52.20;;;;;;5092911;28;20702;-42
2022/10/19 04:26:21;;;;;;;19.58;10.02;;;15.40;52.30;;;;;;5092403;28;20298;-42
2022/10/19 04:28:48;;;;;;;17.23;9.53;;;15.40;52.30;;;;;;5092825;28;20267;-42
2022/10/19 04:31:13;;;;;;;20.23;10.35;;;15.40;52.40;;;;;;5092778;28;20174;-42
2022/10/19 04:33:40;;;;;;;20.33;11.80;;;15.40;52.40;;;;;;5092700;28;20664;-41
2022/10/19 04:36:08;;;;;;;21.75;9.98;;;15.40;52.40;;;;;;5092081;28;20221;-41
2022/10/19 04:38:34;;;;;;;14.95;10.60;;;15.40;52.40;;;;;;5092866;28;20171;-42
2022/10/19 04:41:09;;;;;;;16.70;9.70;;;15.40;52.40;;;;;;5092511;28;20176;-42
2022/10/19 04:43:36;;;;;;;15.65;10.05;;;15.40;52.40;;;;;;5092561;28;20172;-41
2022/10/19 04:46:28;;;;;;;14.00;10.70;;;15.40;52.50;;;;;;5091986;28;20184;-42
2022/10/19 04:48:55;;;;;;;14.52;9.90;;;15.40;52.30;;;;;;5089874;28;20527;-41
2022/10/19 04:51:22;;;;;;;18.98;11.30;;;15.40;52.40;;;;;;5092844;28;20612;-42
2022/10/19 04:53:47;;;;;;;18.55;12.35;;;15.40;52.40;;;;;;5092639;28;20203;-42
2022/10/19 04:56:25;;;;;;;18.20;9.60;;;15.40;52.40;;;;;;5091867;28;20186;-42
2022/10/19 04:58:54;;;;;;;25.23;11.45;;;15.50;52.40;;;;;;5092770;28;20194;-42
2022/10/19 05:01:21;;;;;;;25.58;11.70;;;15.40;52.50;;;;;;5092408;28;20183;-41
2022/10/19 05:03:51;;;;;;;22.52;11.48;;;15.40;52.40;;;;;;5092266;28;20168;-42
2022/10/19 05:06:17;;;;;;;19.58;10.07;;;15.40;52.40;;;;;;5090442;28;20682;-42
2022/10/19 05:08:42;;;;;;;18.03;10.07;;;15.40;52.50;;;;;;5092242;28;20203;-42
2022/10/19 05:11:13;;;;;;;16.30;10.70;;;15.40;52.50;;;;;;5091331;28;20172;-42
2022/10/19 05:13:39;;;;;;;19.30;10.10;;;15.40;52.50;;;;;;5092312;28;20505;-42
2022/10/19 05:16:06;;;;;;;21.20;11.00;;;15.40;52.50;;;;;;5091373;28;20226;-41
2022/10/19 05:18:33;;;;;;;13.52;9.20;;;15.40;52.50;;;;;;5092069;28;20222;-42
2022/10/19 05:21:03;;;;;;;18.38;12.18;;;15.40;52.40;;;;;;5092146;28;20213;-42
2022/10/19 05:23:29;;;;;;;17.55;11.45;;;15.40;52.40;;;;;;5092176;28;20474;-41
2022/10/19 05:26:06;;;;;;;15.95;11.30;;;15.40;52.30;;;;;;5091478;28;20244;-42
2022/10/19 05:28:32;;;;;;;18.33;11.48;;;15.50;52.40;;;;;;5092216;28;20175;-42
2022/10/19 05:31:08;;;;;;;18.17;10.88;;;15.50;52.40;;;;;;5092252;28;20176;-42
2022/10/19 05:33:34;;;;;;;18.05;11.57;;;15.40;52.20;;;;;;5091981;28;20576;-41
2022/10/19 05:36:15;;;;;;;15.82;10.13;;;15.40;52.20;;;;;;5091415;28;20568;-42
2022/10/19 05:38:42;;;;;;;17.10;9.43;;;15.40;52.20;;;;;;5092075;28;20218;-42
2022/10/19 05:41:08;;;;;;;20.13;10.68;;;15.40;52.20;;;;;;5091910;28;20519;-41
2022/10/19 05:43:34;;;;;;;16.40;11.10;;;15.30;52.20;;;;;;5091899;28;20156;-41
2022/10/19 05:46:07;;;;;;;14.63;9.23;;;15.40;52.30;;;;;;5091575;28;20279;-42
2022/10/19 05:48:34;;;;;;;15.05;10.50;;;15.40;52.30;;;;;;5092120;28;20799;-41
2022/10/19 05:51:02;;;;;;;16.80;10.77;;;15.40;52.20;;;;;;5091846;28;20267;-41
2022/10/19 05:53:28;;;;;;;15.23;10.45;;;15.30;52.30;;;;;;5091739;28;20207;-42
2022/10/19 05:55:54;;;;;;;17.75;10.27;;;15.40;52.40;;;;;;5091835;28;20244;-42
2022/10/19 05:58:20;;;;;;;14.15;9.10;;;15.30;52.40;;;;;;5092891;28;20309;-42
2022/10/19 06:00:54;;;;;;;19.13;9.97;;;15.30;52.50;;;;;;5092740;28;20255;-42
2022/10/19 06:03:21;;;;;;;16.70;10.90;;;15.40;52.50;;;;;;5092481;28;20405;-41
2022/10/19 06:05:48;;;;;;;16.10;9.35;;;15.40;52.50;;;;;;5091295;28;20691;-42
2022/10/19 06:08:15;;;;;;;17.10;8.00;;;15.40;52.60;;;;;;5091413;28;20658;-41
2022/10/19 06:10:40;;;;;;;15.82;9.73;;;15.40;52.60;;;;;;5091532;28;20699;-42
2022/10/19 06:13:06;;;;;;;18.80;9.20;;;15.40;52.60;;;;;;5091664;28;20168;-41
2022/10/19 06:15:34;;;;;;;14.93;8.90;;;15.40;52.60;;;;;;5091176;28;20457;-42
2022/10/19 06:18:02;;;;;;;12.13;8.32;;;15.40;52.60;;;;;;5091620;28;20168;-42
2022/10/19 06:20:28;;;;;;;12.20;9.02;;;15.50;52.60;;;;;;5091656;28;20168;-42
2022/10/19 06:22:54;;;;;;;13.25;10.25;;;15.50;52.60;;;;;;5093327;28;20160;-42
2022/10/19 06:25:20;;;;;;;17.67;9.93;;;15.50;52.60;;;;;;5095069;28;20188;-42
2022/10/19 06:27:46;;;;;;;14.73;10.37;;;15.50;52.40;;;;;;5094702;28;20409;-42
2022/10/19 06:30:12;;;;;;;12.38;8.90;;;15.60;52.40;;;;;;5095172;28;20179;-41
2022/10/19 06:32:37;;;;;;;17.60;11.50;;;15.80;52.30;;;;;;5095314;28;20184;-42
2022/10/19 06:35:08;;;;;;;12.40;9.00;;;15.90;52.10;;;;;;5094925;28;20806;-42
2022/10/19 06:37:34;;;;;;;15.18;9.80;;;15.90;52.00;;;;;;5094677;28;20570;-42
2022/10/19 06:40:00;;;;;;;10.80;8.90;;;16.00;51.90;;;;;;5094842;28;20172;-42
2022/10/19 06:42:25;;;;;;;14.63;10.10;;;15.90;51.90;;;;;;5094842;28;20213;-42
2022/10/19 06:44:51;;;;;;;16.50;10.30;;;15.90;52.40;;;;;;5094689;28;20175;-42
2022/10/19 06:47:17;;;;;;;19.23;8.70;;;15.90;52.20;;;;;;5094378;28;20172;-42
2022/10/19 06:49:43;;;;;;;14.60;8.60;;;15.90;53.00;;;;;;5094725;28;20168;-42
2022/10/19 06:52:09;;;;;;;9.40;8.38;;;16.00;52.30;;;;;;5094632;28;20597;-41
2022/10/19 06:54:34;;;;;;;11.57;7.07;;;16.00;52.30;;;;;;5094430;28;20333;-42
2022/10/19 06:57:00;;;;;;;12.40;7.80;;;16.00;52.30;;;;;;5094289;28;20429;-42
2022/10/19 06:59:26;;;;;;;15.50;8.37;;;15.90;52.30;;;;;;5095022;28;20788;-42
2022/10/19 07:01:52;;;;;;;14.07;8.37;;;16.00;52.30;;;;;;5094447;28;20646;-42
2022/10/19 07:04:17;;;;;;;9.90;8.17;;;16.00;52.30;;;;;;5094540;28;20172;-42
2022/10/19 07:06:43;;;;;;;13.87;9.77;;;16.00;52.30;;;;;;5093713;28;20559;-42
2022/10/19 07:09:09;;;;;;;22.63;10.20;;;16.00;52.40;;;;;;5094238;28;20562;-42
2022/10/19 07:11:34;;;;;;;15.90;8.00;;;16.00;52.30;;;;;;5094305;28;20167;-42
2022/10/19 07:14:00;;;;;;;20.70;8.17;;;16.00;52.30;;;;;;5094358;28;20195;-42
2022/10/19 07:16:26;;;;;;;18.30;9.03;;;16.10;52.50;;;;;;5093680;28;20445;-42
2022/10/19 07:18:52;;;;;;;14.83;7.67;;;16.10;52.50;;;;;;5094548;28;20172;-42
2022/10/19 07:21:20;;;;;;;12.00;8.40;;;16.20;52.60;;;;;;5094061;28;20192;-42
2022/10/19 07:23:47;;;;;;;16.67;8.15;;;16.20;52.40;;;;;;5093983;28;20205;-42
2022/10/19 07:26:16;;;;;;;12.73;8.38;;;16.30;52.50;;;;;;5093376;28;20191;-42
2022/10/19 07:28:44;;;;;;;9.43;6.20;;;16.30;52.30;;;;;;5093908;28;20180;-42
2022/10/19 07:31:12;;;;;;;13.38;6.32;;;16.30;52.10;;;;;;5093918;28;20172;-41
2022/10/19 07:33:38;;;;;;;9.93;6.78;;;16.30;51.90;;;;;;5092908;28;20179;-42
2022/10/19 07:36:06;;;;;;;8.98;6.00;;;16.30;52.00;;;;;;5093171;28;20242;-42
2022/10/19 07:38:33;;;;;;;11.85;5.30;;;16.30;51.70;;;;;;5093687;28;20580;-42
2022/10/19 07:41:13;;;;;;;8.73;6.43;;;16.30;51.80;;;;;;5093966;28;20167;-42
2022/10/19 07:43:40;;;;;;;11.27;6.13;;;16.30;51.90;;;;;;5093601;28;20650;-42
2022/10/19 07:46:09;;;;;;;10.63;4.72;;;16.30;52.00;;;;;;5092945;28;20648;-42
2022/10/19 07:48:35;;;;;;;10.40;5.25;;;16.30;51.80;;;;;;5093512;28;20176;-42
2022/10/19 07:51:02;;;;;;;9.80;5.00;;;16.30;51.40;;;;;;5093625;28;20229;-42
2022/10/19 07:53:28;;;;;;;10.52;4.93;;;16.30;51.40;;;;;;5093605;28;20172;-41
2022/10/19 07:55:54;;;;;;;6.53;4.63;;;16.30;51.40;;;;;;5092610;28;20280;-41
2022/10/19 07:58:20;;;;;;;9.50;4.30;;;16.30;51.50;;;;;;5093365;28;20168;-42
2022/10/19 08:00:45;;;;;;;6.37;5.20;;;16.30;51.10;;;;;;5093253;28;20750;-42
2022/10/19 08:03:11;;;;;;;9.03;4.10;;;16.20;50.90;;;;;;5093447;28;20253;-42
2022/10/19 08:05:37;;;;;;;6.73;4.20;;;16.20;51.00;;;;;;5092465;28;20536;-42
2022/10/19 08:08:03;;;;;;;6.57;4.50;;;16.30;51.30;;;;;;5093373;28;20179;-42
2022/10/19 08:10:29;;;;;;;11.70;6.22;;;16.20;50.90;;;;;;5093233;28;20187;-42
2022/10/19 08:12:55;;;;;;;6.45;4.38;;;16.20;50.90;;;;;;5093138;28;20212;-41
2022/10/19 08:15:20;;;;;;;6.27;5.67;;;16.30;51.20;;;;;;5092737;28;20208;-42
2022/10/19 08:17:46;;;;;;;7.47;4.90;;;16.30;51.10;;;;;;5092340;28;20611;-42
2022/10/19 08:20:12;;;;;;;8.03;5.33;;;16.30;51.20;;;;;;5092913;28;20168;-41
2022/10/19 08:22:38;;;;;;;10.87;6.00;;;16.30;51.20;;;;;;5092919;28;20628;-42
2022/10/19 08:25:04;;;;;;;7.40;5.43;;;16.40;51.20;;;;;;5092700;28;20178;-42
2022/10/19 08:27:30;;;;;;;6.05;4.75;;;16.40;50.90;;;;;;5092238;28;20247;-42
2022/10/19 08:29:56;;;;;;;12.70;5.57;;;16.50;51.20;;;;;;5093029;28;20263;-42
2022/10/19 08:32:21;;;;;;;7.50;5.33;;;16.50;51.40;;;;;;5092584;28;20219;-42
2022/10/19 08:34:47;;;;;;;7.87;5.43;;;16.50;51.30;;;;;;5092473;28;20188;-42
2022/10/19 08:37:13;;;;;;;5.13;4.30;;;16.60;51.40;;;;;;5092039;28;20172;-42
2022/10/19 08:39:38;;;;;;;7.50;5.40;;;16.60;51.20;;;;;;5093160;28;20164;-42
2022/10/19 08:42:13;;;;;;;6.87;4.60;;;16.60;51.30;;;;;;5092958;28;20183;-42
2022/10/19 08:44:57;;;;;;;10.30;5.30;;;16.70;51.20;;;;;;5092451;28;20205;-42
2022/10/19 08:47:25;;;;;;;6.82;5.00;;;16.80;51.10;;;;;;5092164;28;20228;-42
2022/10/19 08:49:51;;;;;;;9.73;4.80;;;16.80;51.20;;;;;;5092611;28;20635;-42
2022/10/19 08:52:27;;;;;;;6.73;4.37;;;16.80;51.00;;;;;;5092378;28;20186;-41
2022/10/19 08:54:57;;;;;;;8.18;4.68;;;16.90;51.20;;;;;;5092299;28;20195;-42
2022/10/19 08:57:34;;;;;;;7.50;4.10;;;17.00;51.30;;;;;;5091724;28;20199;-42
2022/10/19 09:00:16;;;;;;;5.30;4.75;;;17.00;50.80;;;;;;5092594;28;20247;-42
2022/10/19 09:03:22;;;;;;;4.00;3.60;;;17.00;50.60;;;;;;5092403;28;20176;-42
2022/10/19 09:06:19;;;;;;;5.50;4.22;;;17.10;50.90;;;;;;5090724;28;20245;-42
2022/10/19 09:08:46;;;;;;;8.68;4.13;;;17.20;50.70;;;;;;5090392;28;20262;-42
2022/10/19 09:11:12;;;;;;;4.43;2.72;;;17.20;50.70;;;;;;5092238;28;20180;-42
2022/10/19 09:13:43;;;;;;;6.85;4.20;;;17.30;50.20;;;;;;5092116;28;20175;-42
2022/10/19 09:16:14;;;;;;;4.65;2.95;;;17.30;50.10;;;;;;5091574;28;20313;-42
2022/10/19 09:18:42;;;;;;;6.82;2.95;;;17.40;49.50;;;;;;5092100;28;20213;-42
2022/10/19 09:21:18;;;;;;;5.97;3.50;;;17.50;49.70;;;;;;5092024;28;20520;-42
2022/10/19 09:24:07;;;;;;;4.80;2.95;;;17.50;49.40;;;;;;5092337;28;20171;-42
2022/10/19 09:26:40;;;;;;;18.35;3.78;;;17.50;49.40;;;;;;5088046;28;20196;-42
2022/10/19 09:29:45;;;;;;;6.30;3.00;;;17.60;49.40;;;;;;5092306;28;20255;-42
2022/10/19 09:32:19;;;;;;;4.20;2.78;;;17.60;49.70;;;;;;5091709;28;20180;-42
2022/10/19 09:34:52;;;;;;;5.10;2.08;;;17.70;49.80;;;;;;5091832;28;20219;-42
2022/10/19 09:37:19;;;;;;;6.97;3.03;;;17.80;49.60;;;;;;5091560;28;20268;-42
2022/10/19 09:39:45;;;;;;;5.45;3.35;;;17.90;48.80;;;;;;5091944;28;20635;-42
2022/10/19 09:42:19;;;;;;;6.37;2.50;;;18.10;49.40;;;;;;5092192;28;20211;-42
2022/10/19 09:44:45;;;;;;;5.82;3.05;;;18.20;48.80;;;;;;5091864;28;20701;-43
2022/10/19 09:47:19;;;;;;;4.10;3.28;;;18.20;46.10;;;;;;5091195;28;20192;-43
2022/10/19 09:49:47;;;;;;;6.55;3.22;;;18.10;44.30;;;;;;5091669;28;20190;-42
2022/10/19 09:52:34;;;;;;;5.15;3.50;;;18.00;46.20;;;;;;5091762;28;20639;-42
2022/10/19 09:55:11;;;;;;;3.85;2.40;;;18.00;46.80;;;;;;5091794;28;20223;-43
2022/10/19 09:57:47;;;;;;;5.47;2.55;;;17.90;47.10;;;;;;5092649;28;20257;-41
2022/10/19 10:00:18;;;;;;;5.65;3.30;;;17.90;46.80;;;;;;5095675;28;20238;-42
2022/10/19 10:05:28;;;;;;;2.95;2.05;;;18.20;47.00;;;;;;5031674;28;20648;-43
2022/10/19 10:07:54;;;;;;;8.73;2.58;;;18.20;46.30;;;;;;5035167;28;20166;-43
2022/10/19 10:10:23;;;;;;;4.85;2.75;;;18.20;46.40;;;;;;5035329;28;20170;-43
2022/10/19 10:12:51;;;;;;;5.18;2.53;;;18.30;45.90;;;;;;5035242;28;20198;-43
2022/10/19 10:15:29;;;;;;;5.53;1.95;;;18.30;45.10;;;;;;5035037;28;20206;-43
2022/10/19 10:17:57;;;;;;;3.08;1.70;;;18.30;44.50;;;;;;5035095;28;20166;-43
2022/10/19 10:20:27;;;;;;;3.03;1.75;;;18.20;45.20;;;;;;5035071;28;20862;-43
2022/10/19 10:23:02;;;;;;;3.78;2.10;;;18.20;45.50;;;;;;5034368;28;20265;-43
2022/10/19 10:25:33;;;;;;;1.95;1.67;;;18.90;45.50;;;;;;5034912;28;20257;-43
2022/10/19 10:28:17;;;;;;;5.30;1.85;;;17.90;45.10;;;;;;5034953;28;20177;-43
2022/10/19 10:30:45;;;;;;;5.72;1.67;;;18.10;45.30;;;;;;5034827;28;20240;-43
2022/10/19 10:33:25;;;;;;;3.53;1.95;;;18.00;44.60;;;;;;5034606;28;20198;-43
2022/10/19 10:35:54;;;;;;;5.22;2.05;;;18.00;44.50;;;;;;5034453;28;20672;-43
2022/10/19 10:38:37;;;;;;;2.85;1.95;;;17.90;44.60;;;;;;5034607;28;20182;-42
2022/10/19 10:41:09;;;;;;;3.78;1.70;;;17.80;44.30;;;;;;5035376;28;20162;-43
2022/10/19 10:43:47;;;;;;;7.50;1.85;;;17.80;44.30;;;;;;5034609;28;20895;-43
2022/10/19 10:46:19;;;;;;;3.80;1.92;;;17.80;44.30;;;;;;5034323;28;20189;-43
2022/10/19 10:48:53;;;;;;;4.45;2.13;;;17.70;44.30;;;;;;5034520;28;20169;-43
2022/10/19 10:51:46;;;;;;;5.78;1.70;;;17.70;43.00;;;;;;5034635;28;20239;-43
2022/10/19 10:54:20;;;;;;;3.63;1.73;;;17.70;42.90;;;;;;5034537;28;20751;-43
2022/10/19 10:57:11;;;;;;;2.28;1.55;;;17.60;43.20;;;;;;5034817;28;20170;-43
2022/10/19 11:00:00;;;;;;;3.20;1.65;;;17.70;43.30;;;;;;5034474;28;20162;-43
2022/10/19 11:02:47;;;;;;;4.60;2.22;;;17.70;43.80;;;;;;5023428;28;20648;-43
2022/10/19 11:05:26;;;;;;;3.50;1.52;;;17.80;44.10;;;;;;5033069;28;20236;-43
2022/10/19 11:08:17;;;;;;;2.50;1.40;;;17.90;43.00;;;;;;5032941;28;20766;-43
2022/10/19 11:11:15;;;;;;;4.47;1.88;;;17.90;43.30;;;;;;5033198;28;20186;-43
2022/10/19 11:13:49;;;;;;;2.83;1.50;;;17.80;42.90;;;;;;5032884;28;20197;-43
2022/10/19 11:16:23;;;;;;;2.97;1.58;;;17.80;42.30;;;;;;5032789;28;20300;-42
2022/10/19 11:19:01;;;;;;;2.63;1.15;;;17.70;42.80;;;;;;5033215;28;20178;-43
2022/10/19 11:21:48;;;;;;;2.03;1.23;;;17.70;42.80;;;;;;5032933;28;20660;-43
2022/10/19 11:24:36;;;;;;;2.05;1.13;;;17.70;42.50;;;;;;5032736;28;20332;-43
2022/10/19 11:27:24;;;;;;;4.45;1.38;;;17.60;42.40;;;;;;5032786;28;20177;-43
2022/10/19 11:30:08;;;;;;;7.68;1.15;;;17.60;42.60;;;;;;5033136;28;20186;-43
2022/10/19 11:32:46;;;;;;;3.75;0.80;;;17.60;41.80;;;;;;5032616;28;20673;-43
2022/10/19 11:35:19;;;;;;;2.97;0.85;;;17.60;41.50;;;;;;5032694;28;20205;-43
2022/10/19 11:38:00;;;;;;;2.85;1.15;;;17.60;41.60;;;;;;5032394;28;20154;-43
2022/10/19 11:40:37;;;;;;;2.05;0.98;;;17.60;41.80;;;;;;5032744;28;20174;-43
2022/10/19 11:43:12;;;;;;;3.30;0.93;;;17.60;41.90;;;;;;5032732;28;20556;-43
2022/10/19 11:45:50;;;;;;;1.92;0.70;;;17.60;42.00;;;;;;5032257;28;20173;-43
2022/10/19 11:48:47;;;;;;;4.03;1.60;;;17.70;42.40;;;;;;5033429;28;20165;-43
2022/10/19 11:51:32;;;;;;;3.45;1.00;;;17.80;41.90;;;;;;5005002;28;20243;-43
2022/10/19 11:54:15;;;;;;;1.40;0.80;;;17.70;41.50;;;;;;5032532;28;20190;-43
2022/10/19 11:57:01;;;;;;;2.55;0.68;;;17.80;41.20;;;;;;5032903;28;20186;-43
2022/10/19 11:59:45;;;;;;;1.45;0.73;;;17.80;40.90;;;;;;5032385;28;20276;-43
2022/10/19 12:02:17;;;;;;;3.10;0.95;;;17.80;40.40;;;;;;5032421;28;20181;-43
2022/10/19 12:05:10;;;;;;;1.80;1.10;;;17.70;41.00;;;;;;5006832;28;285534;-43
2022/10/19 12:07:45;;;;;;;2.80;0.80;;;17.80;40.70;;;;;;5033142;28;20166;-43
2022/10/19 12:10:37;;;;;;;1.20;0.98;;;17.80;41.00;;;;;;5033015;28;20180;-43
2022/10/19 12:13:11;;;;;;;1.50;0.88;;;17.90;40.60;;;;;;5033105;28;20201;-43
2022/10/19 12:15:43;;;;;;;1.13;0.60;;;17.90;39.90;;;;;;5032541;28;20210;-43
2022/10/19 12:18:27;;;;;;;1.10;0.60;;;17.90;39.80;;;;;;5033158;28;20158;-43
2022/10/19 12:20:56;;;;;;;4.22;0.77;;;17.90;40.00;;;;;;5032372;28;20188;-43
2022/10/19 12:23:39;;;;;;;2.08;0.82;;;17.90;40.40;;;;;;5032901;28;20194;-43
2022/10/19 12:26:09;;;;;;;1.20;0.75;;;17.90;39.30;;;;;;5032538;28;20648;-43
2022/10/19 12:28:39;;;;;;;2.63;0.75;;;17.80;39.50;;;;;;5032680;28;20220;-42
2022/10/19 12:31:06;;;;;;;1.05;0.52;;;17.80;39.80;;;;;;5032556;28;20194;-43
2022/10/19 12:33:35;;;;;;;4.43;0.90;;;17.80;39.60;;;;;;5032699;28;20204;-43
2022/10/19 12:36:19;;;;;;;3.67;1.15;;;17.80;39.50;;;;;;5031993;28;20256;-43
2022/10/19 12:39:09;;;;;;;4.03;1.27;;;17.80;39.10;;;;;;5032535;28;20170;-43
2022/10/19 12:41:35;;;;;;;2.42;0.75;;;17.70;39.50;;;;;;5032741;28;20603;-43
2022/10/19 12:44:16;;;;;;;1.97;0.40;;;17.60;39.50;;;;;;5032288;28;20305;-43
2022/10/19 12:46:58;;;;;;;2.00;1.10;;;17.60;38.80;;;;;;5032480;28;20663;-43
2022/10/19 12:49:30;;;;;;;2.45;1.00;;;17.60;39.00;;;;;;5032600;28;20244;-43
2022/10/19 12:51:57;;;;;;;5.10;2.60;;;17.60;39.00;;;;;;5032215;28;20184;-43
2022/10/19 12:54:26;;;;;;;6.55;2.72;;;17.60;39.10;;;;;;5032226;28;20538;-43
2022/10/19 12:56:54;;;;;;;3.17;1.27;;;17.60;39.50;;;;;;5032037;28;20249;-43
2022/10/19 12:59:30;;;;;;;2.85;0.60;;;17.70;40.20;;;;;;5032370;28;20224;-43
2022/10/19 13:01:57;;;;;;;3.97;1.73;;;17.70;40.00;;;;;;5032491;28;20166;-43